createdAt,value
2023-04-07T00:02:02.806Z,95204.53
2023-04-07T00:04:29.579Z,95204.44
2023-04-07T00:06:56.232Z,95208.09
2023-04-07T00:09:22.958Z,95213.88
2023-04-07T00:11:49.600Z,95202.06
2023-04-07T00:14:16.206Z,95193.09
2023-04-07T00:16:42.937Z,95197.22
2023-04-07T00:19:09.473Z,95198.72
2023-04-07T00:21:36.165Z,95203.88
2023-04-07T00:24:02.894Z,95204.88
2023-04-07T00:26:31.654Z,95207.59
2023-04-07T00:28:59.128Z,95204.25
2023-04-07T00:31:26.013Z,95203.09
2023-04-07T00:33:52.992Z,95199.03
2023-04-07T00:36:19.941Z,95200.97
2023-04-07T00:38:46.533Z,95189.06
2023-04-07T00:41:13.325Z,95189.41
2023-04-07T00:43:40.065Z,95188.31
2023-04-07T00:46:06.868Z,95185.31
2023-04-07T00:48:33.730Z,95185.41
2023-04-07T00:51:00.357Z,95175.69
2023-04-07T00:53:26.906Z,95164.72
2023-04-07T00:55:53.712Z,95172.66
2023-04-07T00:58:20.500Z,95156.91
2023-04-07T01:00:59.301Z,95165.97
2023-04-07T01:03:33.910Z,95145.63
2023-04-07T01:06:06.871Z,95159.16
2023-04-07T01:08:38.534Z,95146.19
2023-04-07T01:11:05.362Z,95147.06
2023-04-07T01:13:38.719Z,95140.91
2023-04-07T01:16:12.105Z,95137.78
2023-04-07T01:18:40.466Z,95137.69
2023-04-07T01:21:14.018Z,95141.38
2023-04-07T01:23:55.615Z,95144.41
2023-04-07T01:26:27.917Z,95134.22
2023-04-07T01:29:07.566Z,95129.22
2023-04-07T01:31:37.316Z,95126.13
2023-04-07T01:34:04.357Z,95129.84
2023-04-07T01:36:33.735Z,95114.78
2023-04-07T01:39:01.352Z,95099.66
2023-04-07T01:41:30.033Z,95093.66
2023-04-07T01:43:57.704Z,95095.53
2023-04-07T01:46:24.893Z,95094.59
2023-04-07T01:48:52.485Z,95097.41
2023-04-07T01:51:21.789Z,95096.78
2023-04-07T01:53:49.703Z,95090.44
2023-04-07T01:56:16.874Z,95090.16
2023-04-07T01:58:43.463Z,95083.81
2023-04-07T02:01:10.314Z,95085.97
2023-04-07T02:03:56.182Z,95069.31
2023-04-07T02:06:32.185Z,95056.69
2023-04-07T02:09:07.933Z,95049.28
2023-04-07T02:11:36.201Z,95062.69
2023-04-07T02:14:06.437Z,95057.28
2023-04-07T02:16:33.516Z,95057.81
2023-04-07T02:19:00.254Z,95060.91
2023-04-07T02:21:27.698Z,95071.25
2023-04-07T02:23:54.358Z,95068.94
2023-04-07T02:26:21.497Z,95069.13
2023-04-07T02:28:48.126Z,95076.69
2023-04-07T02:31:14.871Z,95072.31
2023-04-07T02:33:41.508Z,95065.78
2023-04-07T02:36:08.178Z,95061.25
2023-04-07T02:38:34.741Z,95062.63
2023-04-07T02:41:01.453Z,95067.78
2023-04-07T02:43:27.975Z,95055.75
2023-04-07T02:45:55.177Z,95051.84
2023-04-07T02:48:21.792Z,95055.75
2023-04-07T02:50:48.365Z,95055.16
2023-04-07T02:53:14.983Z,95052.84
2023-04-07T02:55:41.895Z,95049.69
2023-04-07T02:58:08.474Z,95037.22
2023-04-07T03:00:35.066Z,95017.72
2023-04-07T03:03:02.017Z,95026.13
2023-04-07T03:05:28.737Z,95020.75
2023-04-07T03:07:55.392Z,95023.50
2023-04-07T03:10:22.002Z,95000.56
2023-04-07T03:12:48.948Z,95013.00
2023-04-07T03:15:17.092Z,95013.63
2023-04-07T03:17:45.926Z,95007.41
2023-04-07T03:20:12.569Z,95016.63
2023-04-07T03:22:39.162Z,95013.56
2023-04-07T03:25:05.948Z,95005.91
2023-04-07T03:27:32.490Z,94992.72
2023-04-07T03:29:59.115Z,94998.00
2023-04-07T03:32:26.018Z,94995.75
2023-04-07T03:34:52.762Z,94994.91
2023-04-07T03:37:19.338Z,94988.94
2023-04-07T03:39:45.905Z,94983.75
2023-04-07T03:42:13.008Z,94970.34
2023-04-07T03:44:39.606Z,94978.06
2023-04-07T03:47:06.181Z,94981.09
2023-04-07T03:49:33.355Z,94979.56
2023-04-07T03:51:59.868Z,94976.06
2023-04-07T03:54:26.698Z,94973.41
2023-04-07T03:56:53.344Z,94959.72
2023-04-07T03:59:19.890Z,94974.84
2023-04-07T04:01:46.497Z,94966.13
2023-04-07T04:04:13.232Z,94968.97
2023-04-07T04:06:39.831Z,94962.13
2023-04-07T04:09:06.453Z,94948.81
2023-04-07T04:11:33.006Z,94944.81
2023-04-07T04:13:59.516Z,94949.66
2023-04-07T04:16:26.301Z,94942.78
2023-04-07T04:18:52.961Z,94937.06
2023-04-07T04:21:19.532Z,94943.69
2023-04-07T04:23:46.020Z,94936.03
2023-04-07T04:26:12.732Z,94935.72
2023-04-07T04:28:39.329Z,94938.88
2023-04-07T04:31:06.104Z,94927.34
2023-04-07T04:33:32.961Z,94932.28
2023-04-07T04:35:59.622Z,94939.09
2023-04-07T04:38:26.205Z,94940.88
2023-04-07T04:40:52.778Z,94939.44
2023-04-07T04:43:19.332Z,94938.34
2023-04-07T04:45:46.211Z,94949.78
2023-04-07T04:48:12.755Z,94955.16
2023-04-07T04:50:39.274Z,94957.94
2023-04-07T04:53:05.792Z,94953.09
2023-04-07T04:55:32.323Z,94946.41
2023-04-07T04:57:59.058Z,94942.75
2023-04-07T05:00:25.586Z,94943.88
2023-04-07T05:02:52.238Z,94951.66
2023-04-07T05:05:19.185Z,94952.56
2023-04-07T05:07:46.021Z,94946.59
2023-04-07T05:10:12.835Z,94942.66
2023-04-07T05:12:39.340Z,94940.97
2023-04-07T05:15:06.661Z,94932.66
2023-04-07T05:17:33.268Z,94936.44
2023-04-07T05:19:59.901Z,94933.78
2023-04-07T05:22:26.504Z,94934.75
2023-04-07T05:24:53.083Z,94933.25
2023-04-07T05:27:19.605Z,94937.09
2023-04-07T05:29:46.137Z,94941.63
2023-04-07T05:32:12.650Z,94949.56
2023-04-07T05:34:40.122Z,94959.22
2023-04-07T05:37:06.727Z,94960.41
2023-04-07T05:39:33.273Z,94970.50
2023-04-07T05:41:59.800Z,94970.94
2023-04-07T05:44:26.341Z,94978.38
2023-04-07T05:46:52.965Z,94975.19
2023-04-07T05:49:20.467Z,94976.81
2023-04-07T05:51:48.730Z,94987.34
2023-04-07T05:54:16.037Z,94991.59
2023-04-07T05:56:42.723Z,95004.34
2023-04-07T05:59:09.988Z,95005.78
2023-04-07T06:01:36.603Z,94997.59
2023-04-07T06:04:04.284Z,94998.22
2023-04-07T06:06:31.380Z,94999.72
2023-04-07T06:08:58.033Z,95005.38
2023-04-07T06:11:27.406Z,95006.50
2023-04-07T06:13:54.201Z,95008.97
2023-04-07T06:16:20.827Z,95018.66
2023-04-07T06:18:47.657Z,95022.25
2023-04-07T06:21:14.232Z,95024.75
2023-04-07T06:23:40.774Z,95029.13
2023-04-07T06:26:11.321Z,95032.81
2023-04-07T06:28:38.117Z,95041.78
2023-04-07T06:31:05.214Z,95048.56
2023-04-07T06:33:31.780Z,95044.84
2023-04-07T06:35:58.480Z,95050.94
2023-04-07T06:38:25.286Z,95050.94
2023-04-07T06:40:52.134Z,95057.75
2023-04-07T06:43:18.722Z,95055.75
2023-04-07T06:45:45.589Z,95054.84
2023-04-07T06:48:12.169Z,95058.91
2023-04-07T06:50:38.768Z,95064.97
2023-04-07T06:53:06.036Z,95068.75
2023-04-07T06:55:32.676Z,95079.06
2023-04-07T06:57:59.252Z,95083.56
2023-04-07T07:00:27.088Z,95082.31
2023-04-07T07:02:53.777Z,95084.78
2023-04-07T07:05:20.580Z,95095.28
2023-04-07T07:07:47.205Z,95100.66
2023-04-07T07:10:13.825Z,95110.44
2023-04-07T07:12:40.351Z,95105.69
2023-04-07T07:15:07.947Z,95107.00
2023-04-07T07:17:34.663Z,95104.03
2023-04-07T07:20:01.283Z,95094.22
2023-04-07T07:22:27.919Z,95110.97
2023-04-07T07:24:54.607Z,95110.69
2023-04-07T07:27:21.203Z,95106.56
2023-04-07T07:29:47.724Z,95111.47
2023-04-07T07:32:14.230Z,95108.75
2023-04-07T07:34:40.959Z,95099.41
2023-04-07T07:37:07.640Z,95106.25
2023-04-07T07:39:34.212Z,95107.81
2023-04-07T07:42:01.491Z,95107.28
2023-04-07T07:44:28.471Z,95109.88
2023-04-07T07:46:55.689Z,95102.69
2023-04-07T07:49:22.422Z,95113.88
2023-04-07T07:51:49.006Z,95097.06
2023-04-07T07:54:15.703Z,95111.00
2023-04-07T07:56:42.322Z,95105.34
2023-04-07T07:59:08.859Z,95112.50
2023-04-07T08:01:35.526Z,95112.16
2023-04-07T08:04:02.433Z,95115.50
2023-04-07T08:06:29.376Z,95115.31
2023-04-07T08:08:56.038Z,95117.44
2023-04-07T08:11:23.384Z,95114.34
2023-04-07T08:13:50.042Z,95112.69
2023-04-07T08:16:16.989Z,95121.53
2023-04-07T08:18:43.781Z,95125.97
2023-04-07T08:21:10.363Z,95125.78
2023-04-07T08:23:37.119Z,95114.56
2023-04-07T08:26:03.857Z,95118.22
2023-04-07T08:28:30.581Z,95113.38
2023-04-07T08:30:57.127Z,95114.84
2023-04-07T08:33:23.853Z,95112.66
2023-04-07T08:35:50.873Z,95122.59
2023-04-07T08:38:17.753Z,95129.50
2023-04-07T08:40:44.414Z,95123.88
2023-04-07T08:43:12.876Z,95125.53
2023-04-07T08:45:42.261Z,95122.63
2023-04-07T08:48:17.783Z,95134.66
2023-04-07T08:50:46.296Z,95130.06
2023-04-07T08:53:17.068Z,95143.81
2023-04-07T08:55:43.704Z,95139.63
2023-04-07T08:58:13.690Z,95129.09
2023-04-07T09:00:45.814Z,95140.28
2023-04-07T09:03:13.116Z,95142.59
2023-04-07T09:05:40.589Z,95140.78
2023-04-07T09:08:07.133Z,95139.50
2023-04-07T09:10:33.677Z,95138.09
2023-04-07T09:13:00.313Z,95142.84
2023-04-07T09:15:31.489Z,95139.50
2023-04-07T09:17:59.360Z,95139.72
2023-04-07T09:20:25.975Z,95138.09
2023-04-07T09:22:52.743Z,95143.84
2023-04-07T09:25:28.202Z,95142.47
2023-04-07T09:28:05.301Z,95134.75
2023-04-07T09:30:33.637Z,95139.59
2023-04-07T09:33:01.661Z,95136.75
2023-04-07T09:35:29.000Z,95136.81
2023-04-07T09:38:06.481Z,95135.41
2023-04-07T09:40:33.243Z,95124.94
2023-04-07T09:43:00.584Z,95139.22
2023-04-07T09:45:34.615Z,95141.50
2023-04-07T09:48:07.855Z,95142.53
2023-04-07T09:50:49.407Z,95144.19
2023-04-07T09:53:17.258Z,95144.47
2023-04-07T09:55:44.244Z,95141.06
2023-04-07T09:58:17.000Z,95133.97
2023-04-07T10:00:44.489Z,95140.31
2023-04-07T10:03:11.313Z,95137.66
2023-04-07T10:05:38.945Z,95140.69
2023-04-07T10:08:06.686Z,95139.19
2023-04-07T10:10:35.516Z,95140.16
2023-04-07T10:13:05.198Z,95141.97
2023-04-07T10:15:31.870Z,95139.59
2023-04-07T10:17:59.768Z,95144.06
2023-04-07T10:20:28.213Z,95138.22
2023-04-07T10:22:59.276Z,95145.00
2023-04-07T10:25:26.750Z,95141.44
2023-04-07T10:27:59.091Z,95135.47
2023-04-07T10:30:28.986Z,95130.09
2023-04-07T10:32:55.970Z,95134.50
2023-04-07T10:35:23.717Z,95139.31
2023-04-07T10:38:08.793Z,95140.63
2023-04-07T10:40:36.474Z,95147.81
2023-04-07T10:43:03.823Z,95146.69
2023-04-07T10:45:48.837Z,95149.16
2023-04-07T10:48:17.464Z,95145.78
2023-04-07T10:50:45.848Z,95147.19
2023-04-07T10:53:15.338Z,95143.06
2023-04-07T10:55:46.363Z,95143.31
2023-04-07T10:58:14.498Z,95142.38
2023-04-07T11:00:41.959Z,95145.41
2023-04-07T11:03:15.039Z,95145.69
2023-04-07T11:05:42.284Z,95132.22
2023-04-07T11:08:09.147Z,95148.88
2023-04-07T11:10:36.210Z,95146.38
2023-04-07T11:13:06.362Z,95142.06
2023-04-07T11:15:34.296Z,95136.22
2023-04-07T11:18:11.730Z,95132.06
2023-04-07T11:20:57.430Z,95150.34
2023-04-07T11:23:25.503Z,95150.22
2023-04-07T11:26:02.740Z,95149.53
2023-04-07T11:28:30.934Z,95147.88
2023-04-07T11:30:58.645Z,95161.41
2023-04-07T11:33:31.507Z,95151.25
2023-04-07T11:36:02.398Z,95137.22
2023-04-07T11:38:34.971Z,95133.41
2023-04-07T11:41:12.005Z,95136.50
2023-04-07T11:43:41.783Z,95151.78
2023-04-07T11:46:16.261Z,95149.56
2023-04-07T11:48:45.291Z,95148.34
2023-04-07T11:51:19.601Z,95139.47
2023-04-07T11:53:47.798Z,95151.34
2023-04-07T11:56:17.610Z,95147.53
2023-04-07T11:58:55.711Z,95140.50
2023-04-07T12:01:24.813Z,95140.25
2023-04-07T12:04:13.527Z,95137.88
2023-04-07T12:06:41.937Z,95144.63
2023-04-07T12:09:30.513Z,95147.69
2023-04-07T12:11:57.911Z,95146.28
2023-04-07T12:14:25.760Z,95150.50
2023-04-07T12:16:53.359Z,95143.94
2023-04-07T12:19:20.073Z,95150.72
2023-04-07T12:21:46.609Z,95134.88
2023-04-07T12:24:13.186Z,95142.78
2023-04-07T12:26:39.858Z,95143.59
2023-04-07T12:29:07.096Z,95137.09
2023-04-07T12:31:34.534Z,95142.91
2023-04-07T12:34:01.496Z,95142.34
2023-04-07T12:36:28.149Z,95132.41
2023-04-07T12:38:54.920Z,95144.34
2023-04-07T12:41:21.873Z,95148.16
2023-04-07T12:43:48.790Z,95144.72
2023-04-07T12:46:15.842Z,95143.47
2023-04-07T12:48:42.780Z,95151.22
2023-04-07T12:51:09.553Z,95140.53
2023-04-07T12:53:36.295Z,95139.38
2023-04-07T12:56:02.876Z,95148.47
2023-04-07T12:58:29.665Z,95142.69
2023-04-07T13:00:56.831Z,95139.84
2023-04-07T13:03:23.668Z,95141.47
2023-04-07T13:05:50.442Z,95136.66
2023-04-07T13:08:17.001Z,95147.44
2023-04-07T13:10:43.512Z,95144.09
2023-04-07T13:13:10.310Z,95142.44
2023-04-07T13:15:36.963Z,95139.75
2023-04-07T13:18:03.851Z,95132.75
2023-04-07T13:20:30.582Z,95142.75
2023-04-07T13:23:07.795Z,95136.19
2023-04-07T13:25:36.593Z,95132.19
2023-04-07T13:28:03.460Z,95131.16
2023-04-07T13:30:30.153Z,95144.03
2023-04-07T13:32:57.224Z,95142.72
2023-04-07T13:35:23.950Z,95148.44
2023-04-07T13:37:50.568Z,95148.69
2023-04-07T13:40:17.141Z,95123.78
2023-04-07T13:42:43.703Z,95135.03
2023-04-07T13:45:10.798Z,95140.91
2023-04-07T13:47:37.479Z,95134.13
2023-04-07T13:50:04.643Z,95103.47
2023-04-07T13:52:32.941Z,95133.63
2023-04-07T13:54:59.791Z,95138.06
2023-04-07T13:57:26.329Z,95132.50
2023-04-07T13:59:53.480Z,95131.94
2023-04-07T14:02:21.234Z,95129.06
2023-04-07T14:04:47.945Z,95135.34
2023-04-07T14:07:14.535Z,95126.81
2023-04-07T14:09:42.781Z,95133.72
2023-04-07T14:12:09.544Z,95139.56
2023-04-07T14:14:37.668Z,95142.53
2023-04-07T14:17:04.522Z,95124.44
2023-04-07T14:19:31.981Z,95140.00
2023-04-07T14:21:58.749Z,95134.13
2023-04-07T14:24:25.381Z,95134.16
2023-04-07T14:26:54.587Z,95140.56
2023-04-07T14:29:22.236Z,95139.63
2023-04-07T14:31:48.751Z,95143.16
2023-04-07T14:34:15.604Z,95138.56
2023-04-07T14:36:42.865Z,95138.78
2023-04-07T14:39:09.372Z,95134.69
2023-04-07T14:41:35.892Z,95146.66
2023-04-07T14:44:02.897Z,95134.97
2023-04-07T14:46:29.440Z,95145.72
2023-04-07T14:48:58.353Z,95146.34
2023-04-07T14:51:25.019Z,95152.94
2023-04-07T14:53:55.913Z,95149.38
2023-04-07T14:56:22.820Z,95149.06
2023-04-07T14:58:49.424Z,95151.59
2023-04-07T15:01:16.079Z,95154.53
2023-04-07T15:03:43.431Z,95155.75
2023-04-07T15:06:11.897Z,95134.94
2023-04-07T15:08:38.668Z,95153.19
2023-04-07T15:11:08.571Z,95143.53
2023-04-07T15:13:36.282Z,95143.84
2023-04-07T15:16:13.792Z,95148.88
2023-04-07T15:18:42.458Z,95141.59
2023-04-07T15:21:09.801Z,95150.13
2023-04-07T15:23:41.791Z,95144.72
2023-04-07T15:26:09.816Z,95139.56
2023-04-07T15:28:36.360Z,95140.72
2023-04-07T15:31:03.805Z,95148.38
2023-04-07T15:33:30.412Z,95151.09
2023-04-07T15:35:57.295Z,95143.66
2023-04-07T15:38:23.800Z,95149.63
2023-04-07T15:40:50.396Z,95155.09
2023-04-07T15:43:16.987Z,95151.53
2023-04-07T15:45:44.521Z,95152.28
2023-04-07T15:48:12.369Z,95145.44
2023-04-07T15:50:39.216Z,95149.72
2023-04-07T15:53:06.474Z,95150.28
2023-04-07T15:55:37.012Z,95148.00
2023-04-07T15:58:04.310Z,95137.94
2023-04-07T16:00:34.031Z,95144.69
2023-04-07T16:03:03.747Z,95142.66
2023-04-07T16:05:30.689Z,95146.72
2023-04-07T16:07:57.231Z,95135.69
2023-04-07T16:10:24.361Z,95151.91
2023-04-07T16:12:50.873Z,95151.50
2023-04-07T16:15:32.323Z,95154.59
2023-04-07T16:18:07.595Z,95139.09
2023-04-07T16:20:34.299Z,95147.34
2023-04-07T16:23:01.025Z,95151.41
2023-04-07T16:25:27.849Z,95149.19
2023-04-07T16:27:54.446Z,95146.00
2023-04-07T16:30:21.070Z,95147.75
2023-04-07T16:32:47.683Z,95145.16
2023-04-07T16:35:15.382Z,95109.28
2023-04-07T16:37:42.711Z,95147.81
2023-04-07T16:40:10.493Z,95153.59
2023-04-07T16:42:37.226Z,95153.97
2023-04-07T16:45:04.503Z,95153.09
2023-04-07T16:47:32.380Z,95166.84
2023-04-07T16:49:59.428Z,95166.28
2023-04-07T16:52:26.632Z,95167.91
2023-04-07T16:54:53.339Z,95163.84
2023-04-07T16:57:19.857Z,95174.66
2023-04-07T16:59:47.234Z,95172.75
2023-04-07T17:02:16.526Z,95175.56
2023-04-07T17:04:44.311Z,95184.31
2023-04-07T17:07:11.777Z,95181.34
2023-04-07T17:09:38.956Z,95189.66
2023-04-07T17:12:06.268Z,95188.88
2023-04-07T17:14:33.764Z,95190.00
2023-04-07T17:17:01.149Z,95198.31
2023-04-07T17:19:27.987Z,95194.94
2023-04-07T17:21:54.526Z,95210.34
2023-04-07T17:24:21.112Z,95202.06
2023-04-07T17:26:48.008Z,95210.75
2023-04-07T17:29:15.748Z,95213.38
2023-04-07T17:31:42.488Z,95200.22
2023-04-07T17:34:09.410Z,95210.00
2023-04-07T17:36:37.681Z,95202.84
2023-04-07T17:39:05.085Z,95217.53
2023-04-07T17:41:34.507Z,95215.97
2023-04-07T17:44:01.665Z,95225.03
2023-04-07T17:46:28.532Z,95222.00
2023-04-07T17:48:57.600Z,95226.53
2023-04-07T17:51:25.214Z,95236.31
2023-04-07T17:53:53.540Z,95238.53
2023-04-07T17:56:20.612Z,95237.34
2023-04-07T17:58:47.583Z,95236.91
2023-04-07T18:01:14.244Z,95244.47
2023-04-07T18:03:41.069Z,95243.28
2023-04-07T18:06:08.550Z,95249.66
2023-04-07T18:08:35.583Z,95254.84
2023-04-07T18:11:02.305Z,95256.25
2023-04-07T18:13:28.931Z,95265.97
2023-04-07T18:15:55.450Z,95269.97
2023-04-07T18:18:22.179Z,95263.41
2023-04-07T18:20:49.696Z,95280.13
2023-04-07T18:23:16.386Z,95274.06
2023-04-07T18:25:43.113Z,95284.44
2023-04-07T18:28:11.796Z,95286.69
2023-04-07T18:30:39.201Z,95290.13
2023-04-07T18:33:05.918Z,95296.22
2023-04-07T18:35:32.862Z,95295.63
2023-04-07T18:37:59.468Z,95304.66
2023-04-07T18:40:26.315Z,95298.94
2023-04-07T18:42:53.038Z,95302.00
2023-04-07T18:45:19.627Z,95307.34
2023-04-07T18:47:46.475Z,95298.22
2023-04-07T18:50:13.130Z,95304.34
2023-04-07T18:52:39.936Z,95302.41
2023-04-07T18:55:08.132Z,95307.38
2023-04-07T18:57:34.873Z,95308.09
2023-04-07T19:00:01.486Z,95317.13
2023-04-07T19:02:28.221Z,95317.41
2023-04-07T19:04:54.982Z,95318.69
2023-04-07T19:07:21.548Z,95313.09
2023-04-07T19:09:51.281Z,95322.63
2023-04-07T19:12:17.909Z,95320.47
2023-04-07T19:14:44.675Z,95329.09
2023-04-07T19:17:11.838Z,95324.19
2023-04-07T19:19:38.460Z,95333.75
2023-04-07T19:22:05.132Z,95327.56
2023-04-07T19:24:31.672Z,95333.91
2023-04-07T19:26:58.455Z,95340.34
2023-04-07T19:29:25.008Z,95339.38
2023-04-07T19:31:53.070Z,95337.97
2023-04-07T19:34:19.853Z,95346.13
2023-04-07T19:36:46.396Z,95328.31
2023-04-07T19:39:12.945Z,95343.59
2023-04-07T19:41:39.560Z,95350.53
2023-04-07T19:44:06.127Z,95348.63
2023-04-07T19:46:33.717Z,95335.03
2023-04-07T19:49:00.411Z,95345.59
2023-04-07T19:51:27.659Z,95352.13
2023-04-07T19:53:54.302Z,95342.47
2023-04-07T19:56:21.502Z,95339.56
2023-04-07T19:58:48.316Z,95356.91
2023-04-07T20:01:18.550Z,95358.06
2023-04-07T20:03:46.322Z,95359.09
2023-04-07T20:06:14.688Z,95356.56
2023-04-07T20:08:41.986Z,95357.84
2023-04-07T20:11:11.558Z,95357.38
2023-04-07T20:13:39.431Z,95357.78
2023-04-07T20:16:06.456Z,95360.69
2023-04-07T20:18:33.469Z,95365.59
2023-04-07T20:21:01.116Z,95361.69
2023-04-07T20:23:27.973Z,95368.34
2023-04-07T20:25:54.751Z,95371.78
2023-04-07T20:28:22.067Z,95367.88
2023-04-07T20:30:48.737Z,95368.44
2023-04-07T20:33:15.580Z,95360.41
2023-04-07T20:35:42.181Z,95383.91
2023-04-07T20:38:08.808Z,95382.94
2023-04-07T20:40:36.961Z,95383.09
2023-04-07T20:43:04.738Z,95367.25
2023-04-07T20:45:32.317Z,95381.09
2023-04-07T20:47:58.869Z,95381.38
2023-04-07T20:50:25.907Z,95384.41
2023-04-07T20:52:53.960Z,95377.88
2023-04-07T20:55:21.000Z,95391.06
2023-04-07T20:57:47.667Z,95381.97
2023-04-07T21:00:15.419Z,95382.19
2023-04-07T21:02:43.082Z,95386.41
2023-04-07T21:05:09.955Z,95376.81
2023-04-07T21:07:36.518Z,95395.56
2023-04-07T21:10:04.078Z,95373.28
2023-04-07T21:12:30.775Z,95384.53
2023-04-07T21:14:57.384Z,95393.00
2023-04-07T21:17:23.959Z,95381.88
2023-04-07T21:19:51.452Z,95394.47
2023-04-07T21:22:18.143Z,95396.00
2023-04-07T21:24:44.732Z,95390.06
2023-04-07T21:27:12.228Z,95390.56
2023-04-07T21:29:41.119Z,95392.06
2023-04-07T21:32:08.622Z,95394.03
2023-04-07T21:34:35.169Z,95383.94
2023-04-07T21:37:01.817Z,95382.69
2023-04-07T21:39:28.374Z,95389.97
2023-04-07T21:41:54.924Z,95384.31
2023-04-07T21:44:21.657Z,95388.38
2023-04-07T21:46:48.850Z,95384.09
2023-04-07T21:49:18.014Z,95389.13
2023-04-07T21:51:44.673Z,95383.78
2023-04-07T21:54:12.430Z,95378.13
2023-04-07T21:56:38.995Z,95379.88
2023-04-07T21:59:05.928Z,95390.13
2023-04-07T22:01:32.564Z,95381.97
2023-04-07T22:03:59.326Z,95382.28
2023-04-07T22:06:26.751Z,95380.75
2023-04-07T22:09:01.064Z,95373.38
2023-04-07T22:11:28.655Z,95369.69
2023-04-07T22:13:55.282Z,95385.53
2023-04-07T22:16:21.892Z,95391.06
2023-04-07T22:18:48.687Z,95394.44
2023-04-07T22:21:15.412Z,95393.47
2023-04-07T22:23:41.955Z,95389.63
2023-04-07T22:26:08.607Z,95387.47
2023-04-07T22:28:35.282Z,95379.84
2023-04-07T22:31:02.430Z,95379.03
2023-04-07T22:33:29.113Z,95377.38
2023-04-07T22:35:55.745Z,95379.34
2023-04-07T22:38:23.099Z,95377.34
2023-04-07T22:40:49.776Z,95382.41
2023-04-07T22:43:16.321Z,95381.84
2023-04-07T22:45:42.907Z,95386.28
2023-04-07T22:48:09.497Z,95382.97
2023-04-07T22:50:36.506Z,95389.06
2023-04-07T22:53:03.095Z,95387.66
2023-04-07T22:55:29.752Z,95392.25
2023-04-07T22:57:56.313Z,95399.69
2023-04-07T23:00:22.910Z,95401.56
2023-04-07T23:02:49.555Z,95390.28
2023-04-07T23:05:16.269Z,95402.34
2023-04-07T23:07:43.870Z,95402.41
2023-04-07T23:10:10.935Z,95381.13
2023-04-07T23:12:37.977Z,95398.00
2023-04-07T23:15:05.172Z,95393.91
2023-04-07T23:17:32.269Z,95401.03
2023-04-07T23:19:58.920Z,95390.50
2023-04-07T23:22:25.702Z,95397.84
2023-04-07T23:24:52.323Z,95398.00
2023-04-07T23:27:18.822Z,95400.34
2023-04-07T23:29:45.426Z,95398.25
2023-04-07T23:32:12.601Z,95395.19
2023-04-07T23:34:40.042Z,95401.50
2023-04-07T23:37:06.856Z,95401.53
2023-04-07T23:39:34.315Z,95398.25
2023-04-07T23:42:00.845Z,95398.72
2023-04-07T23:44:27.492Z,95410.03
2023-04-07T23:46:54.065Z,95413.09
2023-04-07T23:49:20.609Z,95403.44
2023-04-07T23:51:47.167Z,95403.69
2023-04-07T23:54:13.993Z,95398.13
2023-04-07T23:56:40.553Z,95405.59
2023-04-07T23:59:07.168Z,95410.34
